Time;durP1;ratioP1;P1;durP2;ratioP2;P2;SDS_P1;SDS_P2;PMS_P1;PMS_P2;Temp;Humidity;BMP_temperature;BMP_pressure;BME280_temperature;BME280_humidity;BME280_pressure;Samples;Min_cycle;Max_cycle;Signal;HPM_P1;HPM_P2
2023/01/16 00:00:28;;;;;;;2.95;0.80;;;;;;;2.50;100.00;99475.34;5096320;28;20020;-84
2023/01/16 00:02:53;;;;;;;4.18;0.68;;;;;;;2.46;100.00;99481.06;5114599;28;20028;-84
2023/01/16 00:05:19;;;;;;;2.23;0.60;;;;;;;2.41;100.00;99464.78;5079468;28;20395;-84
2023/01/16 00:07:44;;;;;;;4.77;1.37;;;;;;;2.32;100.00;99471.31;5096545;28;20023;-84
2023/01/16 00:10:10;;;;;;;3.83;0.80;;;;;;;2.28;100.00;99462.84;5096439;28;20029;-84
2023/01/16 00:12:35;;;;;;;3.40;1.00;;;;;;;2.24;100.00;99463.44;5096340;28;20031;-84
2023/01/16 00:15:01;;;;;;;4.80;0.90;;;;;;;2.26;100.00;99446.16;5079775;28;20039;-84
2023/01/16 00:17:30;;;;;;;4.30;1.17;;;;;;;2.21;100.00;99459.28;5079496;28;20031;-84
2023/01/16 00:19:56;;;;;;;2.00;0.68;;;;;;;2.19;100.00;99455.19;5079672;28;20431;-84
2023/01/16 00:22:22;;;;;;;4.22;0.93;;;;;;;2.22;100.00;99447.56;5079672;28;20071;-83
2023/01/16 00:24:47;;;;;;;6.87;1.50;;;;;;;2.19;100.00;99439.94;5114447;28;20031;-84
2023/01/16 00:27:13;;;;;;;3.92;1.00;;;;;;;2.13;100.00;99435.38;5095874;28;20031;-85
2023/01/16 00:29:42;;;;;;;5.10;1.40;;;;;;;2.18;100.00;99440.13;5079313;28;20043;-85
2023/01/16 00:32:16;;;;;;;5.78;1.30;;;;;;;2.17;100.00;99438.47;5095877;28;20042;-84
2023/01/16 00:34:42;;;;;;;7.55;1.50;;;;;;;2.14;100.00;99436.19;5114402;28;20032;-85
2023/01/16 00:37:07;;;;;;;7.07;1.20;;;;;;;2.17;100.00;99433.13;5079273;28;20027;-85
2023/01/16 00:39:33;;;;;;;6.13;1.80;;;;;;;2.23;100.00;99430.50;5096796;28;20052;-84
2023/01/16 00:41:58;;;;;;;5.78;1.05;;;;;;;2.28;100.00;99436.06;5096040;28;20046;-85
2023/01/16 00:44:41;;;;;;;7.27;1.60;;;;;;;2.23;100.00;99426.97;5114194;28;20481;-85
2023/01/16 00:47:07;;;;;;;8.38;1.38;;;;;;;2.21;100.00;99423.69;5079298;28;20051;-85
2023/01/16 00:49:32;;;;;;;10.37;1.50;;;;;;;2.20;100.00;99422.88;5096079;28;20494;-83
2023/01/16 00:51:58;;;;;;;4.43;1.27;;;;;;;2.14;100.00;99404.06;5095755;28;20437;-84
2023/01/16 00:54:23;;;;;;;4.68;1.48;;;;;;;2.13;100.00;99405.09;5078282;28;20031;-84
2023/01/16 00:56:52;;;;;;;5.77;0.93;;;;;;;2.08;100.00;99405.69;5079050;28;20036;-84
2023/01/16 00:59:18;;;;;;;6.50;2.13;;;;;;;2.06;100.00;99400.53;5114001;28;20055;-84
2023/01/16 01:01:46;;;;;;;8.03;1.40;;;;;;;2.05;100.00;99390.88;5095880;28;20464;-84
2023/01/16 01:04:12;;;;;;;7.95;1.05;;;;;;;2.03;100.00;99397.44;5095760;28;20066;-84
2023/01/16 01:06:38;;;;;;;5.20;1.00;;;;;;;2.02;100.00;99385.06;5095736;28;20047;-84
2023/01/16 01:09:04;;;;;;;5.78;1.00;;;;;;;2.02;100.00;99379.72;5095664;28;20052;-84
2023/01/16 01:11:29;;;;;;;7.03;1.13;;;;;;;1.97;100.00;99374.13;5078837;28;20086;-84
2023/01/16 01:13:56;;;;;;;7.45;0.85;;;;;;;1.96;100.00;99377.81;5095626;28;20028;-84
2023/01/16 01:16:21;;;;;;;8.43;1.08;;;;;;;1.90;100.00;99364.19;5095546;28;20116;-84
2023/01/16 01:18:51;;;;;;;6.00;1.00;;;;;;;1.89;100.00;99372.41;5095627;28;20035;-84
2023/01/16 01:21:17;;;;;;;8.35;0.90;;;;;;;1.86;100.00;99362.09;5079604;28;20062;-84
2023/01/16 01:23:43;;;;;;;9.17;1.20;;;;;;;1.86;100.00;99362.09;5095681;28;20055;-84
2023/01/16 01:26:11;;;;;;;9.52;0.95;;;;;;;1.85;100.00;99347.09;5079601;28;20495;-84
2023/01/16 01:28:37;;;;;;;6.97;1.23;;;;;;;1.80;100.00;99344.16;5095797;28;20047;-84
2023/01/16 01:31:08;;;;;;;6.25;0.95;;;;;;;1.78;100.00;99336.34;5095753;28;20277;-84
2023/01/16 01:33:34;;;;;;;5.53;0.90;;;;;;;1.72;100.00;99337.13;5095583;28;20357;-84
2023/01/16 01:35:59;;;;;;;8.25;1.10;;;;;;;1.73;100.00;99328.91;5113652;28;20080;-84
2023/01/16 01:38:25;;;;;;;5.90;0.77;;;;;;;1.71;100.00;99328.28;5095411;28;20032;-84
2023/01/16 01:40:50;;;;;;;4.10;0.68;;;;;;;1.71;100.00;99319.41;5095632;28;20076;-84
2023/01/16 01:43:17;;;;;;;7.27;0.80;;;;;;;1.70;100.00;99312.44;5095490;28;20035;-85
2023/01/16 01:45:51;;;;;;;5.57;0.70;;;;;;;1.71;100.00;99308.72;5095611;28;20433;-84
2023/01/16 01:48:39;;;;;;;5.70;1.17;;;;;;;1.68;100.00;99288.56;5095394;28;20028;-87
2023/01/16 01:51:09;;;;;;;13.07;0.80;;;;;;;1.65;100.00;99291.59;5095009;28;20059;-84
2023/01/16 01:53:37;;;;;;;11.93;0.98;;;;;;;1.63;100.00;99288.31;5095466;28;20031;-84
2023/01/16 01:56:27;;;;;;;5.78;0.80;;;;;;;1.60;100.00;99287.91;5095261;28;20028;-84
2023/01/16 01:58:57;;;;;;;7.45;1.15;;;;;;;1.58;100.00;99277.41;5094264;28;20039;-84
2023/01/16 02:01:26;;;;;;;4.20;0.68;;;;;;;1.52;100.00;99264.78;5095436;28;20027;-84
2023/01/16 02:04:07;;;;;;;6.00;0.80;;;;;;;1.50;100.00;99251.63;5095943;28;20081;-84
2023/01/16 02:06:46;;;;;;;5.95;0.73;;;;;;;1.52;100.00;99252.28;5098193;28;20122;-83
2023/01/16 02:09:14;;;;;;;8.90;0.98;;;;;;;1.51;100.00;99257.81;5098833;28;20028;-84
2023/01/16 02:11:48;;;;;;;8.05;0.93;;;;;;;1.58;100.00;99251.47;5098711;28;20063;-84
2023/01/16 02:14:18;;;;;;;4.07;0.85;;;;;;;1.63;100.00;99240.19;5098399;28;20043;-83
2023/01/16 02:19:32;;;;;;;4.95;1.52;;;;;;;1.58;100.00;99226.59;5117335;28;20039;-84
2023/01/16 02:22:17;;;;;;;4.45;0.77;;;;;;;1.62;100.00;99237.72;5098810;28;20409;-84
2023/01/16 02:24:49;;;;;;;6.05;0.77;;;;;;;1.57;100.00;99231.09;5098759;28;20030;-84
2023/01/16 02:27:38;;;;;;;4.72;0.70;;;;;;;1.55;100.00;99230.50;5098531;28;20061;-84
2023/01/16 02:30:21;;;;;;;6.40;1.07;;;;;;;1.56;100.00;99215.25;5117050;28;20031;-84
2023/01/16 02:32:51;;;;;;;7.53;0.88;;;;;;;1.52;100.00;99198.81;5098715;28;20031;-84
2023/01/16 02:35:54;;;;;;;6.40;0.95;;;;;;;1.49;100.00;99193.84;5098061;28;20034;-84
2023/01/16 02:39:04;;;;;;;4.93;0.50;;;;;;;1.46;100.00;99174.69;5116577;28;20023;-84
2023/01/16 02:41:41;;;;;;;7.30;1.00;;;;;;;1.44;100.00;99169.56;5016762;28;20036;-84
2023/01/16 02:44:22;;;;;;;4.43;0.90;;;;;;;1.42;100.00;99155.56;5033442;28;20119;-84
2023/01/16 02:47:05;;;;;;;9.98;1.00;;;;;;;1.42;100.00;99149.38;5087434;28;20070;-84
2023/01/16 02:49:56;;;;;;;5.10;0.68;;;;;;;1.36;100.00;99137.66;5098211;28;20028;-84
2023/01/16 02:52:30;;;;;;;6.57;0.70;;;;;;;1.33;100.00;99125.50;5116538;28;20149;-83
2023/01/16 02:55:03;;;;;;;6.57;1.13;;;;;;;1.36;100.00;99126.97;5097998;28;20023;-83
2023/01/16 02:57:43;;;;;;;6.17;0.73;;;;;;;1.35;100.00;99115.44;5097970;28;20035;-83
2023/01/16 03:00:10;;;;;;;7.88;1.00;;;;;;;1.33;100.00;99105.97;5098451;28;20024;-84
2023/01/16 03:02:36;;;;;;;9.40;1.20;;;;;;;1.36;100.00;99103.72;5080963;28;20034;-83
2023/01/16 03:05:02;;;;;;;8.80;0.83;;;;;;;1.37;100.00;99091.19;5115797;28;20027;-84
2023/01/16 03:07:46;;;;;;;10.32;1.00;;;;;;;1.38;100.00;99088.31;5097317;28;20281;-83
2023/01/16 03:10:41;;;;;;;9.23;0.80;;;;;;;1.37;100.00;99081.34;5097578;28;20035;-83
2023/01/16 03:13:47;;;;;;;3.72;1.13;;;;;;;1.39;100.00;99075.78;5115928;28;20055;-83
2023/01/16 03:16:33;;;;;;;4.38;0.57;;;;;;;1.42;100.00;99062.03;5098048;28;20405;-83
2023/01/16 03:19:37;;;;;;;4.80;0.70;;;;;;;1.46;100.00;99055.28;5097497;28;20118;-83
2023/01/16 03:22:35;;;;;;;4.20;0.50;;;;;;;1.46;100.00;99047.25;5115831;28;20026;-83
2023/01/16 03:25:36;;;;;;;9.63;0.80;;;;;;;1.45;100.00;99034.91;5097445;28;20035;-83
2023/01/16 03:28:23;;;;;;;4.45;0.70;;;;;;;1.45;100.00;99015.34;5012913;28;20033;-84
2023/01/16 03:31:06;;;;;;;3.70;0.88;;;;;;;1.48;100.00;99018.47;5089675;28;20040;-83
2023/01/16 03:33:52;;;;;;;6.37;1.17;;;;;;;1.49;100.00;99013.94;5096882;28;20123;-83
2023/01/16 03:36:36;;;;;;;9.00;1.50;;;;;;;1.48;100.00;99001.59;5098047;28;20359;-83
2023/01/16 03:39:06;;;;;;;4.82;1.17;;;;;;;1.49;100.00;98993.38;5097006;28;20106;-84
2023/01/16 03:41:34;;;;;;;5.63;0.80;;;;;;;1.50;100.00;98980.84;5097659;28;20054;-83
2023/01/16 03:44:06;;;;;;;5.13;0.88;;;;;;;1.51;100.00;98979.81;5096341;28;20040;-83
2023/01/16 03:46:41;;;;;;;7.90;0.80;;;;;;;1.51;100.00;98969.13;5115510;28;20082;-84
2023/01/16 03:49:12;;;;;;;5.43;0.80;;;;;;;1.53;100.00;98967.88;5096605;28;20582;-84
2023/01/16 03:51:44;;;;;;;8.68;0.80;;;;;;;1.51;100.00;98947.75;5115342;28;20069;-83
2023/01/16 03:54:25;;;;;;;7.57;0.73;;;;;;;1.54;100.00;98936.66;5097121;28;20027;-83
2023/01/16 03:56:59;;;;;;;6.25;0.82;;;;;;;1.57;100.00;98921.00;5096959;28;20050;-83
2023/01/16 03:59:25;;;;;;;8.27;0.80;;;;;;;1.56;100.00;98916.69;5097506;28;20039;-83
2023/01/16 04:01:55;;;;;;;13.55;1.52;;;;;;;1.61;100.00;98912.59;5079782;28;20028;-84
2023/01/16 04:04:29;;;;;;;7.07;0.85;;;;;;;1.62;100.00;98901.69;5096675;28;20031;-83
2023/01/16 04:07:35;;;;;;;6.55;1.35;;;;;;;1.67;100.00;98899.22;5096951;28;20035;-84
2023/01/16 04:10:05;;;;;;;5.90;0.60;;;;;;;1.67;100.00;98893.88;5114668;28;20498;-84
2023/01/16 04:12:42;;;;;;;4.63;1.67;;;;;;;1.70;100.00;98877.44;5114521;28;20028;-83
2023/01/16 04:15:09;;;;;;;4.78;0.80;;;;;;;1.74;100.00;98872.47;5096496;28;20062;-83
2023/01/16 04:17:37;;;;;;;10.82;1.00;;;;;;;1.78;100.00;98871.03;5079276;28;20077;-83
2023/01/16 04:20:03;;;;;;;9.18;0.95;;;;;;;1.80;100.00;98854.78;5079303;28;20039;-83
2023/01/16 04:22:29;;;;;;;5.10;1.02;;;;;;;1.83;100.00;98852.53;5114167;28;20031;-83
2023/01/16 04:24:59;;;;;;;9.60;0.83;;;;;;;1.85;100.00;98838.97;5095910;28;20031;-83
2023/01/16 04:27:24;;;;;;;11.55;1.00;;;;;;;1.88;100.00;98835.88;5113842;28;20047;-83
2023/01/16 04:29:52;;;;;;;9.40;0.97;;;;;;;1.89;100.00;98822.28;5095912;28;20031;-83
2023/01/16 04:32:18;;;;;;;7.30;0.82;;;;;;;1.93;100.00;98809.31;5079533;28;20092;-84
2023/01/16 04:34:43;;;;;;;10.17;1.73;;;;;;;1.99;100.00;98816.50;5096251;28;20114;-84
2023/01/16 04:37:12;;;;;;;6.90;1.15;;;;;;;2.02;100.00;98801.88;5078986;28;20361;-84
2023/01/16 04:39:38;;;;;;;7.55;0.90;;;;;;;2.02;100.00;98786.66;5095953;28;20106;-83
2023/01/16 04:42:03;;;;;;;5.20;0.90;;;;;;;2.06;100.00;98781.72;5079268;28;20180;-85
2023/01/16 04:44:29;;;;;;;6.17;1.00;;;;;;;2.06;100.00;98761.13;5096435;28;20102;-84
2023/01/16 04:46:54;;;;;;;5.47;0.87;;;;;;;2.09;100.00;98746.50;5079151;28;20032;-84
2023/01/16 04:49:20;;;;;;;6.50;1.10;;;;;;;2.13;100.00;98739.72;5095772;28;20023;-84
2023/01/16 04:51:45;;;;;;;8.33;0.97;;;;;;;2.15;100.00;98734.94;5066844;28;20191;-83
2023/01/16 04:54:14;;;;;;;6.20;0.90;;;;;;;2.19;100.00;98719.31;5058729;28;20484;-84
2023/01/16 04:56:41;;;;;;;6.95;0.90;;;;;;;2.22;100.00;98718.88;5093716;28;20020;-84
2023/01/16 04:59:07;;;;;;;5.30;1.05;;;;;;;2.24;100.00;98706.09;5042695;28;20035;-84
2023/01/16 05:01:34;;;;;;;9.50;0.90;;;;;;;2.28;100.00;98692.06;5059353;28;20456;-84
2023/01/16 05:04:01;;;;;;;4.95;0.63;;;;;;;2.31;100.00;98690.03;5075778;28;20032;-84
2023/01/16 05:06:27;;;;;;;4.63;0.80;;;;;;;2.37;100.00;98681.13;5075476;28;20082;-84
2023/01/16 05:08:52;;;;;;;5.57;0.90;;;;;;;2.38;100.00;98677.44;5075616;28;20036;-84
2023/01/16 05:11:18;;;;;;;8.73;1.20;;;;;;;2.43;100.00;98669.56;5075321;28;20039;-84
2023/01/16 05:13:43;;;;;;;5.88;0.80;;;;;;;2.48;100.00;98667.06;5075838;28;20829;-84
2023/01/16 05:16:08;;;;;;;11.03;1.17;;;;;;;2.53;100.00;98655.72;5093202;28;20055;-85
2023/01/16 05:18:34;;;;;;;5.00;0.77;;;;;;;2.55;100.00;98654.44;5075918;28;20032;-86
2023/01/16 05:21:03;;;;;;;3.10;0.70;;;;;;;2.55;100.00;98634.88;5075719;28;20035;-84
2023/01/16 05:23:31;;;;;;;5.57;0.70;;;;;;;2.60;100.00;98629.72;5075359;28;20115;-84
2023/01/16 05:25:56;;;;;;;6.72;1.02;;;;;;;2.68;100.00;98618.72;5058794;28;20035;-83
2023/01/16 05:28:25;;;;;;;4.60;0.90;;;;;;;2.65;100.00;98605.75;5075014;28;20028;-84
2023/01/16 05:30:51;;;;;;;3.83;0.90;;;;;;;2.71;100.00;98598.72;5093070;28;20097;-84
2023/01/16 05:33:17;;;;;;;5.97;0.90;;;;;;;2.74;100.00;98582.22;5058018;28;20472;-84
2023/01/16 05:35:46;;;;;;;6.00;0.70;;;;;;;2.74;100.00;98576.84;5075805;28;20028;-84
2023/01/16 05:38:11;;;;;;;7.35;0.70;;;;;;;2.78;100.00;98562.00;5074769;28;20039;-84
2023/01/16 05:40:37;;;;;;;12.13;1.38;;;;;;;2.76;100.00;98551.50;5044999;28;20036;-84
2023/01/16 05:43:03;;;;;;;5.83;0.97;;;;;;;2.79;100.00;98534.16;5079177;28;20031;-84
2023/01/16 05:45:28;;;;;;;4.47;0.85;;;;;;;2.81;100.00;98524.06;5062267;28;20032;-83
2023/01/16 05:47:54;;;;;;;2.90;0.80;;;;;;;2.88;100.00;98535.50;5078957;28;20453;-83
2023/01/16 05:50:19;;;;;;;7.33;0.77;;;;;;;2.91;100.00;98513.63;5045043;28;20039;-84
2023/01/16 05:52:45;;;;;;;5.83;0.90;;;;;;;2.91;100.00;98505.59;5044736;28;20052;-84
2023/01/16 05:55:10;;;;;;;9.63;1.23;;;;;;;2.95;100.00;98503.28;5078960;28;20036;-84
2023/01/16 05:57:39;;;;;;;4.03;0.80;;;;;;;2.98;100.00;98501.00;5079005;28;20472;-84
2023/01/16 06:00:05;;;;;;;8.38;0.82;;;;;;;3.02;100.00;98490.63;5078404;28;20055;-84
2023/01/16 06:02:31;;;;;;;5.10;0.80;;;;;;;3.06;100.00;98497.19;5078441;28;20123;-84
2023/01/16 06:04:57;;;;;;;5.70;1.10;;;;;;;3.07;100.00;98496.16;5078141;28;20123;-84
2023/01/16 06:07:22;;;;;;;3.42;0.70;;;;;;;3.10;100.00;98487.66;5061841;28;20070;-84
2023/01/16 06:09:48;;;;;;;3.27;0.60;;;;;;;3.14;100.00;98486.19;5061386;28;20066;-84
2023/01/16 06:12:18;;;;;;;5.70;0.70;;;;;;;3.18;100.00;98470.47;5078273;28;20463;-84
2023/01/16 06:14:44;;;;;;;3.85;0.63;;;;;;;3.19;100.00;98466.75;5078474;28;20031;-84
2023/01/16 06:17:10;;;;;;;6.57;0.80;;;;;;;3.21;100.00;98461.16;5078077;28;20039;-84
2023/01/16 06:19:36;;;;;;;6.53;0.75;;;;;;;3.23;100.00;98441.09;5061432;28;20042;-84
2023/01/16 06:22:01;;;;;;;4.87;0.60;;;;;;;3.24;100.00;98448.13;5078241;28;20114;-84
2023/01/16 06:24:27;;;;;;;5.05;0.57;;;;;;;3.25;100.00;98443.56;5044910;28;20032;-83
2023/01/16 06:26:52;;;;;;;4.82;0.50;;;;;;;3.26;100.00;98439.84;5096290;28;20024;-83
2023/01/16 06:29:17;;;;;;;5.23;0.70;;;;;;;3.25;100.00;98420.28;5061047;28;20138;-84
2023/01/16 06:31:43;;;;;;;2.67;0.60;;;;;;;3.26;100.00;98424.59;5061486;28;20039;-83
2023/01/16 06:34:11;;;;;;;3.67;0.70;;;;;;;3.24;100.00;98409.78;5061329;28;20040;-83
2023/01/16 06:36:37;;;;;;;6.65;1.10;;;;;;;3.27;100.00;98404.78;5077345;28;20395;-84
2023/01/16 06:39:02;;;;;;;6.43;0.70;;;;;;;3.25;100.00;98390.81;5061116;28;20032;-84
2023/01/16 06:41:28;;;;;;;7.53;1.02;;;;;;;3.27;100.00;98394.06;5061015;28;20286;-84
2023/01/16 06:43:53;;;;;;;4.37;0.50;;;;;;;3.27;100.00;98366.44;5077791;28;20036;-84
2023/01/16 06:46:22;;;;;;;4.10;0.60;;;;;;;3.27;100.00;98355.72;5061031;28;20036;-83
2023/01/16 06:48:47;;;;;;;5.95;0.90;;;;;;;3.28;100.00;98346.66;5077706;28;20073;-83
2023/01/16 06:51:16;;;;;;;2.60;0.80;;;;;;;3.26;100.00;98332.66;5102474;28;20051;-83
2023/01/16 06:53:41;;;;;;;7.00;0.90;;;;;;;3.25;100.00;98314.91;5097371;28;20024;-84
2023/01/16 06:56:11;;;;;;;7.90;0.90;;;;;;;3.26;100.00;98319.25;5080777;28;20046;-83
2023/01/16 06:58:36;;;;;;;5.68;0.50;;;;;;;3.27;100.00;98294.09;5097638;28;20432;-82
2023/01/16 07:01:02;;;;;;;2.40;0.67;;;;;;;3.27;100.00;98289.53;5097389;28;20161;-83
2023/01/16 07:03:27;;;;;;;4.35;0.70;;;;;;;3.27;100.00;98283.38;5097290;28;20059;-83
2023/01/16 07:05:53;;;;;;;7.05;0.60;;;;;;;3.31;100.00;98284.53;5080284;28;20092;-83
2023/01/16 07:08:18;;;;;;;4.17;0.60;;;;;;;3.32;100.00;98267.41;5097823;28;20028;-83
2023/01/16 07:10:44;;;;;;;3.87;0.50;;;;;;;3.31;100.00;98257.75;5097224;28;20019;-83
2023/01/16 07:13:10;;;;;;;2.95;0.50;;;;;;;3.33;100.00;98252.97;5096936;28;20080;-83
2023/01/16 07:24:12;;;;;;;3.72;0.65;;;;;;;3.29;100.00;98208.91;5100065;28;20045;-83
2023/01/16 07:26:42;;;;;;;3.20;0.65;;;;;;;3.34;100.00;98201.00;5097190;28;20412;-83
2023/01/16 07:29:08;;;;;;;4.07;0.50;;;;;;;3.33;100.00;98197.47;5096832;28;20027;-83
2023/01/16 07:31:34;;;;;;;5.05;0.50;;;;;;;3.37;100.00;98186.31;5096347;28;20030;-83
2023/01/16 07:33:59;;;;;;;3.80;0.35;;;;;;;3.36;100.00;98182.00;5096362;28;20035;-83
2023/01/16 07:36:25;;;;;;;1.67;0.40;;;;;;;3.40;100.00;98177.81;5115331;28;20112;-83
2023/01/16 07:38:50;;;;;;;3.40;0.40;;;;;;;3.37;100.00;98179.09;5097278;28;20073;-82
2023/01/16 07:41:16;;;;;;;2.88;0.40;;;;;;;3.38;100.00;98159.28;5096262;28;20482;-84
2023/01/16 07:43:41;;;;;;;2.47;0.30;;;;;;;3.40;100.00;98173.25;5096899;28;20031;-82
2023/01/16 07:46:07;;;;;;;3.13;0.43;;;;;;;3.40;100.00;98153.69;5096454;28;20042;-83
2023/01/16 07:48:33;;;;;;;4.53;0.60;;;;;;;3.39;100.00;98155.53;5096189;28;20035;-82
2023/01/16 07:50:59;;;;;;;3.23;0.57;;;;;;;3.41;100.00;98144.56;5090757;28;20048;-82
2023/01/16 07:53:27;;;;;;;3.83;0.50;;;;;;;3.43;100.00;98135.25;5094320;28;20371;-83
2023/01/16 07:55:56;;;;;;;3.15;0.40;;;;;;;3.44;100.00;98131.53;5075680;28;20024;-82
2023/01/16 07:58:24;;;;;;;3.30;0.30;;;;;;;3.45;100.00;98135.81;5075513;28;20047;-83
2023/01/16 08:00:52;;;;;;;7.10;0.60;;;;;;;3.44;100.00;98131.53;5059966;28;20108;-83
2023/01/16 08:03:18;;;;;;;5.22;0.60;;;;;;;3.47;100.00;98122.19;5094743;28;20032;-83
2023/01/16 08:05:44;;;;;;;2.67;0.57;;;;;;;3.44;100.00;98107.41;5059540;28;20496;-83
2023/01/16 08:08:10;;;;;;;4.57;0.60;;;;;;;3.46;100.00;98099.13;5076023;28;20036;-83
2023/01/16 08:10:37;;;;;;;1.73;0.45;;;;;;;3.48;100.00;98088.97;5059118;28;20032;-83
2023/01/16 08:13:03;;;;;;;4.78;0.55;;;;;;;3.50;100.00;98084.19;5075538;28;20065;-83
2023/01/16 08:15:29;;;;;;;4.65;0.85;;;;;;;3.51;100.00;98088.50;5059985;28;20036;-82
2023/01/16 08:17:54;;;;;;;3.55;0.50;;;;;;;3.53;100.00;98069.47;5076012;28;20434;-82
2023/01/16 08:20:19;;;;;;;3.50;0.53;;;;;;;3.55;100.00;98076.25;5059604;28;20361;-85
2023/01/16 08:22:52;;;;;;;5.20;0.60;;;;;;;3.56;100.00;98069.00;5059005;28;20032;-85
2023/01/16 08:25:21;;;;;;;2.25;0.40;;;;;;;3.51;100.00;98064.38;5060002;28;20062;-85
2023/01/16 08:27:46;;;;;;;1.38;0.40;;;;;;;3.52;100.00;98049.91;5075588;28;20027;-85
2023/01/16 08:30:13;;;;;;;3.80;0.93;;;;;;;3.57;100.00;98051.88;5059216;28;20127;-85
2023/01/16 08:32:45;;;;;;;1.95;0.40;;;;;;;3.55;100.00;98054.00;5075637;28;20060;-85
2023/01/16 08:35:10;;;;;;;4.15;0.50;;;;;;;3.61;100.00;98048.47;5075666;28;20041;-85
2023/01/16 08:37:39;;;;;;;3.43;0.47;;;;;;;3.60;100.00;98029.94;5075367;28;20119;-85
2023/01/16 08:40:08;;;;;;;3.38;0.93;;;;;;;3.58;100.00;98011.41;5076194;28;20036;-85
2023/01/16 08:53:40;;;;;;;1.73;0.40;;;;;;;3.67;100.00;98011.84;5113824;28;20046;-86
2023/01/16 08:56:18;;;;;;;2.23;0.70;;;;;;;3.68;100.00;98008.94;5095476;28;20039;-88
2023/01/16 08:58:44;;;;;;;2.80;0.50;;;;;;;3.67;100.00;98018.03;5081491;28;20370;-85
2023/01/16 09:01:09;;;;;;;2.15;0.50;;;;;;;3.65;100.00;98013.97;5113534;28;20019;-85
2023/01/16 09:03:38;;;;;;;2.35;0.40;;;;;;;3.61;100.00;98007.44;5062535;28;20023;-85
2023/01/16 09:06:04;;;;;;;0.73;0.30;;;;;;;3.53;100.00;98000.63;5096084;28;20032;-85
2023/01/16 09:08:32;;;;;;;2.50;0.33;;;;;;;3.51;100.00;98005.38;5078675;28;20036;-85
2023/01/16 09:13:50;;;;;;;1.40;0.30;;;;;;;3.46;100.00;97994.59;5098436;28;20055;-85
2023/01/16 09:16:23;;;;;;;2.25;0.30;;;;;;;3.42;100.00;97990.75;5100039;28;20044;-86
2023/01/16 09:18:50;;;;;;;1.83;0.35;;;;;;;3.39;100.00;97994.72;5099597;28;20028;-85
2023/01/16 09:21:18;;;;;;;0.70;0.30;;;;;;;3.42;100.00;97998.78;5099653;28;20043;-86
2023/01/16 09:23:46;;;;;;;1.38;0.38;;;;;;;3.34;100.00;97991.94;5099740;28;20520;-85
2023/01/16 09:26:12;;;;;;;0.95;0.30;;;;;;;3.37;100.00;97982.63;5082580;28;20035;-86
2023/01/16 09:28:40;;;;;;;1.95;0.30;;;;;;;3.33;100.00;97987.63;5099131;28;20104;-86
2023/01/16 09:31:06;;;;;;;0.98;0.30;;;;;;;3.31;100.00;97984.38;5098971;28;20036;-85
2023/01/16 09:33:34;;;;;;;0.40;0.20;;;;;;;3.33;100.00;97972.34;5099109;28;20035;-85
2023/01/16 09:36:00;;;;;;;0.73;0.20;;;;;;;3.31;100.00;97979.81;5099140;28;20093;-85
2023/01/16 09:38:27;;;;;;;0.80;0.30;;;;;;;3.28;100.00;97982.19;5099182;28;20036;-84
2023/01/16 09:40:56;;;;;;;2.17;0.20;;;;;;;3.31;100.00;97979.03;5100126;28;20051;-87
2023/01/16 09:43:35;;;;;;;1.67;0.20;;;;;;;3.30;100.00;97978.19;5099195;28;20023;-84
2023/01/16 09:46:16;;;;;;;0.80;0.30;;;;;;;3.28;100.00;97974.94;5100067;28;20028;-86
2023/01/16 09:48:50;;;;;;;1.70;0.30;;;;;;;3.28;100.00;97966.09;5098951;28;20402;-84
2023/01/16 09:51:24;;;;;;;0.95;0.30;;;;;;;3.33;100.00;97979.59;5117118;28;20047;-85
2023/01/16 09:59:47;;;;;;;1.13;0.25;;;;;;;3.40;100.00;97958.00;5116999;28;20046;-85
2023/01/16 10:02:20;;;;;;;0.43;0.20;;;;;;;3.39;100.00;97940.28;5098632;28;20020;-84
2023/01/16 10:04:47;;;;;;;2.15;0.30;;;;;;;3.47;100.00;97947.94;5099089;28;20032;-84
2023/01/16 10:07:18;;;;;;;0.82;0.30;;;;;;;3.57;100.00;97945.44;5099049;28;20088;-84
2023/01/16 10:10:11;;;;;;;0.45;0.25;;;;;;;3.74;100.00;97942.00;5099244;28;20032;-84
2023/01/16 10:12:39;;;;;;;1.90;0.20;;;;;;;3.89;100.00;97934.19;5098423;28;20428;-85
2023/01/16 10:15:18;;;;;;;0.90;0.30;;;;;;;4.15;100.00;97924.69;5098751;28;20391;-84
2023/01/16 10:18:11;;;;;;;0.40;0.22;;;;;;;4.42;100.00;97921.31;5098497;28;20035;-85
2023/01/16 10:21:04;;;;;;;0.38;0.20;;;;;;;4.62;100.00;97920.78;5098447;28;20474;-85
2023/01/16 10:23:29;;;;;;;1.45;0.20;;;;;;;4.78;100.00;97908.34;5098191;28;20065;-85
2023/01/16 10:26:07;;;;;;;0.47;0.20;;;;;;;4.95;100.00;97899.44;5097037;28;20070;-85
2023/01/16 10:28:57;;;;;;;0.55;0.20;;;;;;;4.99;100.00;97906.75;5116505;28;20028;-85
2023/01/16 10:34:12;;;;;;;0.30;0.20;;;;;;;4.97;100.00;97879.28;5100570;28;20027;-84
2023/01/16 10:36:48;;;;;;;0.52;0.30;;;;;;;5.15;100.00;97878.13;5097921;28;20035;-85
2023/01/16 10:39:19;;;;;;;1.95;0.30;;;;;;;5.31;100.00;97873.72;5098867;28;20034;-86
2023/01/16 10:50:34;;;;;;;0.63;0.30;;;;;;;5.44;100.00;97849.13;5116414;28;20399;-85
2023/01/16 10:53:00;;;;;;;2.70;0.30;;;;;;;5.41;100.00;97852.31;5098258;28;20045;-84
2023/01/16 10:55:26;;;;;;;1.73;0.23;;;;;;;5.46;100.00;97835.41;5081319;28;20118;-84
2023/01/16 10:58:05;;;;;;;0.57;0.20;;;;;;;5.47;100.00;97833.56;5080977;28;20034;-85
2023/01/16 11:00:41;;;;;;;0.82;0.20;;;;;;;5.49;100.00;97836.78;5116153;28;20028;-84
2023/01/16 11:03:15;;;;;;;0.68;0.25;;;;;;;5.48;100.00;97835.16;5098404;28;20031;-84
2023/01/16 11:05:41;;;;;;;1.58;0.20;;;;;;;5.44;100.00;97816.03;5097482;28;20028;-85
2023/01/16 11:08:07;;;;;;;0.40;0.20;;;;;;;5.46;100.00;97816.59;5097102;28;20031;-84
2023/01/16 11:10:36;;;;;;;0.63;0.30;;;;;;;5.49;100.00;97813.38;5097250;28;20040;-84
2023/01/16 11:19:28;;;;;;;0.50;0.20;;;;;;;5.65;100.00;97792.00;5068645;28;20441;-84
2023/01/16 11:21:58;;;;;;;1.02;0.20;;;;;;;5.76;100.00;97780.25;5115316;28;20035;-84
2023/01/16 11:24:32;;;;;;;1.58;0.30;;;;;;;5.85;100.00;97765.25;5097239;28;20110;-84
2023/01/16 11:27:00;;;;;;;0.60;0.30;;;;;;;5.90;100.00;97764.44;5097541;28;20032;-85
2023/01/16 11:29:31;;;;;;;2.13;0.30;;;;;;;5.94;100.00;97758.28;5097097;28;20536;-84
2023/01/16 11:32:02;;;;;;;0.60;0.40;;;;;;;6.02;100.00;97758.91;5097394;28;20492;-84
2023/01/16 11:34:31;;;;;;;0.40;0.20;;;;;;;5.99;100.00;97759.41;5097343;28;20027;-85
2023/01/16 11:37:00;;;;;;;2.38;0.30;;;;;;;5.94;100.00;97747.53;5079913;28;20046;-84
2023/01/16 11:39:33;;;;;;;0.50;0.20;;;;;;;5.93;100.00;97747.78;5096592;28;20506;-85
2023/01/16 11:47:53;;;;;;;0.90;0.30;;;;;;;5.88;100.00;97729.72;5097204;28;20048;-84
2023/01/16 11:50:33;;;;;;;0.60;0.30;;;;;;;5.80;100.00;97725.66;5114615;28;20546;-84
2023/01/16 11:52:58;;;;;;;1.70;0.30;;;;;;;5.75;100.00;97716.75;5096936;28;20040;-84
2023/01/16 11:55:45;;;;;;;0.50;0.30;;;;;;;5.76;100.00;97718.38;5063088;28;20086;-85
2023/01/16 11:58:29;;;;;;;1.45;0.30;;;;;;;5.72;100.00;97712.69;5096852;28;20035;-85
2023/01/16 12:01:11;;;;;;;1.00;0.30;;;;;;;5.74;100.00;97705.19;5096304;28;20042;-84
2023/01/16 12:03:53;;;;;;;0.75;0.40;;;;;;;5.71;100.00;97699.50;5115359;28;20042;-84
2023/01/16 12:06:34;;;;;;;1.00;0.43;;;;;;;5.72;100.00;97696.56;5096537;28;20667;-84
2023/01/16 12:09:05;;;;;;;0.70;0.38;;;;;;;5.78;100.00;97692.00;5096691;28;20042;-84
2023/01/16 12:15:35;;;;;;;1.08;0.30;;;;;;;5.93;100.00;97667.84;5012032;28;20429;-83
2023/01/16 12:18:06;;;;;;;1.05;0.25;;;;;;;5.99;100.00;97670.59;5090636;28;20046;-84
2023/01/16 12:20:48;;;;;;;0.60;0.30;;;;;;;5.91;100.00;97664.63;5096367;28;20031;-84
2023/01/16 12:23:45;;;;;;;0.65;0.20;;;;;;;5.85;100.00;97668.38;5096897;28;20530;-84
2023/01/16 12:26:25;;;;;;;0.77;0.30;;;;;;;5.82;100.00;97654.63;5095796;28;20083;-84
2023/01/16 12:29:03;;;;;;;1.08;0.30;;;;;;;5.87;100.00;97652.75;5095928;28;20069;-84
2023/01/16 12:31:50;;;;;;;0.63;0.20;;;;;;;6.01;100.00;97647.75;5096346;28;20141;-84
2023/01/16 12:34:32;;;;;;;0.52;0.20;;;;;;;6.15;100.00;97640.78;5113556;28;20472;-84
2023/01/16 12:37:30;;;;;;;0.88;0.20;;;;;;;6.27;100.00;97635.16;5095984;28;20492;-84
2023/01/16 12:40:17;;;;;;;0.30;0.20;;;;;;;6.41;99.62;97632.78;5061461;28;20076;-85
2023/01/16 12:43:22;;;;;;;0.52;0.28;;;;;;;6.51;99.56;97623.91;5114403;28;20031;-84
2023/01/16 12:46:15;;;;;;;1.65;0.28;;;;;;;6.67;98.67;97622.00;5096079;28;20038;-84
2023/01/16 12:48:40;;;;;;;0.60;0.20;;;;;;;6.88;98.03;97606.66;5113820;28;20085;-84
2023/01/16 12:51:31;;;;;;;0.63;0.20;;;;;;;6.90;95.81;97603.69;5095388;28;20480;-85